Time;durP1;ratioP1;P1;durP2;ratioP2;P2;SDS_P1;SDS_P2;PMS_P1;PMS_P2;Temp;Humidity;BMP_temperature;BMP_pressure;BME280_temperature;BME280_humidity;BME280_pressure;Samples;Min_cycle;Max_cycle;Signal;HPM_P1;HPM_P2
2022/07/07 00:00:38;;;;;;;5.3;3.4;;;;;;;17.09;63.86328;95838.61;;;;
2022/07/07 00:01:38;;;;;;;5.3;3.4;;;;;;;17.09;63.86328;95838.61;;;;
2022/07/07 00:02:39;;;;;;;5.3;3.4;;;;;;;17.09;63.86328;95838.61;;;;
2022/07/07 00:03:39;;;;;;;5.3;3.4;;;;;;;17.09;63.86328;95838.61;;;;
2022/07/07 00:04:40;;;;;;;5.3;3.4;;;;;;;17.09;63.86328;95838.61;;;;
2022/07/07 00:05:40;;;;;;;5.3;3.4;;;;;;;17.09;63.86328;95838.61;;;;
2022/07/07 00:06:41;;;;;;;5.3;3.4;;;;;;;17.09;63.86328;95838.61;;;;
2022/07/07 00:07:41;;;;;;;5.3;3.4;;;;;;;17.09;63.86328;95838.61;;;;
2022/07/07 00:08:42;;;;;;;3.65;3.35;;;;;;;16.97;63.87891;95833.86;;;;
2022/07/07 00:09:43;;;;;;;3.65;3.35;;;;;;;16.97;63.87891;95833.86;;;;
2022/07/07 00:10:43;;;;;;;3.65;3.35;;;;;;;16.97;63.87891;95833.86;;;;
2022/07/07 00:11:44;;;;;;;3.65;3.35;;;;;;;16.97;63.87891;95833.86;;;;
2022/07/07 00:12:44;;;;;;;3.65;3.35;;;;;;;16.97;63.87891;95833.86;;;;
2022/07/07 00:13:45;;;;;;;3.65;3.35;;;;;;;16.97;63.87891;95833.86;;;;
2022/07/07 00:14:45;;;;;;;3.65;3.35;;;;;;;16.97;63.87891;95833.86;;;;
2022/07/07 00:15:45;;;;;;;3.65;3.35;;;;;;;16.97;63.87891;95833.86;;;;
2022/07/07 00:16:46;;;;;;;3.65;3.35;;;;;;;16.97;63.87891;95833.86;;;;
2022/07/07 00:17:46;;;;;;;3.65;3.35;;;;;;;16.97;63.87891;95833.86;;;;
2022/07/07 00:18:47;;;;;;;3.65;3.35;;;;;;;16.97;63.87891;95833.86;;;;
2022/07/07 00:19:48;;;;;;;3.4;2.85;;;;;;;16.94;63.96094;95829.92;;;;
2022/07/07 00:20:49;;;;;;;3.4;2.85;;;;;;;16.94;63.96094;95829.92;;;;
2022/07/07 00:21:49;;;;;;;3.4;2.85;;;;;;;16.94;63.96094;95829.92;;;;
2022/07/07 00:22:50;;;;;;;3.4;2.85;;;;;;;16.94;63.96094;95829.92;;;;
2022/07/07 00:23:50;;;;;;;3.4;2.85;;;;;;;16.94;63.96094;95829.92;;;;
2022/07/07 00:24:51;;;;;;;3.4;2.85;;;;;;;16.94;63.96094;95829.92;;;;
2022/07/07 00:25:51;;;;;;;3.4;2.85;;;;;;;16.94;63.96094;95829.92;;;;
2022/07/07 00:26:52;;;;;;;3.4;2.85;;;;;;;16.94;63.96094;95829.92;;;;
2022/07/07 00:27:52;;;;;;;3.4;2.85;;;;;;;16.94;63.96094;95829.92;;;;
2022/07/07 00:28:53;;;;;;;3.4;2.85;;;;;;;16.94;63.96094;95829.92;;;;
2022/07/07 00:29:53;;;;;;;3.35;3.05;;;;;;;16.96;63.83203;95826.46;;;;
2022/07/07 00:30:54;;;;;;;3.35;3.05;;;;;;;16.96;63.83203;95826.46;;;;
2022/07/07 00:31:54;;;;;;;3.35;3.05;;;;;;;16.96;63.83203;95826.46;;;;
2022/07/07 00:32:55;;;;;;;3.35;3.05;;;;;;;16.96;63.83203;95826.46;;;;
2022/07/07 00:33:55;;;;;;;3.35;3.05;;;;;;;16.96;63.83203;95826.46;;;;
2022/07/07 00:34:56;;;;;;;3.35;3.05;;;;;;;16.96;63.83203;95826.46;;;;
2022/07/07 00:35:56;;;;;;;3.35;3.05;;;;;;;16.96;63.83203;95826.46;;;;
2022/07/07 00:36:57;;;;;;;3.35;3.05;;;;;;;16.96;63.83203;95826.46;;;;
2022/07/07 00:37:57;;;;;;;3.35;3.05;;;;;;;16.96;63.83203;95826.46;;;;
2022/07/07 00:38:58;;;;;;;3.35;3.05;;;;;;;16.96;63.83203;95826.46;;;;
2022/07/07 00:39:58;;;;;;;3.35;3.05;;;;;;;16.96;63.83203;95826.46;;;;
2022/07/07 00:40:59;;;;;;;3.35;3.05;;;;;;;17.02;63.62207;95833.54;;;;
2022/07/07 00:41:59;;;;;;;3.35;3.05;;;;;;;17.02;63.62207;95833.54;;;;
2022/07/07 00:43:00;;;;;;;3.35;3.05;;;;;;;17.02;63.62207;95833.54;;;;
2022/07/07 00:44:01;;;;;;;3.35;3.05;;;;;;;17.02;63.62207;95833.54;;;;
2022/07/07 00:45:01;;;;;;;3.35;3.05;;;;;;;17.02;63.62207;95833.54;;;;
2022/07/07 00:46:02;;;;;;;3.35;3.05;;;;;;;17.02;63.62207;95833.54;;;;
2022/07/07 00:47:03;;;;;;;3.35;3.05;;;;;;;17.02;63.62207;95833.54;;;;
2022/07/07 00:48:05;;;;;;;3.35;3.05;;;;;;;17.02;63.62207;95833.54;;;;
2022/07/07 00:49:07;;;;;;;3.35;3.05;;;;;;;17.02;63.62207;95833.54;;;;
2022/07/07 00:50:09;;;;;;;3.35;3.05;;;;;;;17.02;63.62207;95833.54;;;;
2022/07/07 00:51:10;;;;;;;3.6;2.95;;;;;;;16.9;63.66113;95827.31;;;;
2022/07/07 00:52:11;;;;;;;3.6;2.95;;;;;;;16.9;63.66113;95827.31;;;;
2022/07/07 00:53:12;;;;;;;3.6;2.95;;;;;;;16.9;63.66113;95827.31;;;;
2022/07/07 00:54:14;;;;;;;3.6;2.95;;;;;;;16.9;63.66113;95827.31;;;;
2022/07/07 00:55:14;;;;;;;3.6;2.95;;;;;;;16.9;63.66113;95827.31;;;;
2022/07/07 00:56:15;;;;;;;3.6;2.95;;;;;;;16.9;63.66113;95827.31;;;;
2022/07/07 00:57:15;;;;;;;3.6;2.95;;;;;;;16.9;63.66113;95827.31;;;;
2022/07/07 00:58:15;;;;;;;3.6;2.95;;;;;;;16.9;63.66113;95827.31;;;;
2022/07/07 00:59:16;;;;;;;3.6;2.95;;;;;;;16.9;63.66113;95827.31;;;;
2022/07/07 01:00:17;;;;;;;3.6;2.95;;;;;;;16.9;63.66113;95827.31;;;;
2022/07/07 01:01:17;;;;;;;3.6;2.95;;;;;;;16.9;63.66113;95827.31;;;;
2022/07/07 01:02:18;;;;;;;3.45;3.15;;;;;;;16.93;63.68555;95818.93;;;;
2022/07/07 01:03:19;;;;;;;3.45;3.15;;;;;;;16.93;63.68555;95818.93;;;;
2022/07/07 01:04:19;;;;;;;3.45;3.15;;;;;;;16.93;63.68555;95818.93;;;;
2022/07/07 01:05:20;;;;;;;3.45;3.15;;;;;;;16.93;63.68555;95818.93;;;;
2022/07/07 01:06:23;;;;;;;3.45;3.15;;;;;;;16.93;63.68555;95818.93;;;;
2022/07/07 01:07:23;;;;;;;3.45;3.15;;;;;;;16.93;63.68555;95818.93;;;;
2022/07/07 01:08:24;;;;;;;3.45;3.15;;;;;;;16.93;63.68555;95818.93;;;;
2022/07/07 01:09:25;;;;;;;3.45;3.15;;;;;;;16.93;63.68555;95818.93;;;;
2022/07/07 01:10:26;;;;;;;3.45;3.15;;;;;;;16.93;63.68555;95818.93;;;;
2022/07/07 01:11:26;;;;;;;3.45;3.15;;;;;;;16.93;63.68555;95818.93;;;;
2022/07/07 01:12:27;;;;;;;8.15;3.3;;;;;;;16.83;63.71582;95820.47;;;;
2022/07/07 01:13:34;;;;;;;8.15;3.3;;;;;;;16.83;63.71582;95820.47;;;;
2022/07/07 01:14:35;;;;;;;8.15;3.3;;;;;;;16.83;63.71582;95820.47;;;;
2022/07/07 01:15:38;;;;;;;8.15;3.3;;;;;;;16.83;63.71582;95820.47;;;;
2022/07/07 01:16:39;;;;;;;8.15;3.3;;;;;;;16.83;63.71582;95820.47;;;;
2022/07/07 01:17:39;;;;;;;8.15;3.3;;;;;;;16.83;63.71582;95820.47;;;;
2022/07/07 01:18:42;;;;;;;8.15;3.3;;;;;;;16.83;63.71582;95820.47;;;;
2022/07/07 01:19:42;;;;;;;8.15;3.3;;;;;;;16.83;63.71582;95820.47;;;;
2022/07/07 01:20:43;;;;;;;8.15;3.3;;;;;;;16.83;63.71582;95820.47;;;;
2022/07/07 01:21:47;;;;;;;8.15;3.3;;;;;;;16.83;63.71582;95820.47;;;;
2022/07/07 01:22:52;;;;;;;8.15;3.3;;;;;;;16.83;63.71582;95820.47;;;;
2022/07/07 01:23:54;;;;;;;4.1;3.15;;;;;;;16.84;63.75;95820.37;;;;
2022/07/07 01:24:54;;;;;;;4.1;3.15;;;;;;;16.84;63.75;95820.37;;;;
2022/07/07 01:25:55;;;;;;;4.1;3.15;;;;;;;16.84;63.75;95820.37;;;;
2022/07/07 01:26:55;;;;;;;4.1;3.15;;;;;;;16.84;63.75;95820.37;;;;
2022/07/07 01:28:14;;;;;;;4.1;3.15;;;;;;;16.84;63.75;95820.37;;;;
2022/07/07 01:29:15;;;;;;;4.1;3.15;;;;;;;16.84;63.75;95820.37;;;;
2022/07/07 01:30:15;;;;;;;4.1;3.15;;;;;;;16.84;63.75;95820.37;;;;
2022/07/07 01:31:17;;;;;;;4.1;3.15;;;;;;;16.84;63.75;95820.37;;;;
2022/07/07 01:32:17;;;;;;;4.1;3.15;;;;;;;16.84;63.75;95820.37;;;;
2022/07/07 01:33:19;;;;;;;4.1;3.15;;;;;;;16.84;63.75;95820.37;;;;
2022/07/07 01:34:20;;;;;;;4.2;3.3;;;;;;;16.67;63.82422;95817.22;;;;
2022/07/07 01:35:20;;;;;;;4.2;3.3;;;;;;;16.67;63.82422;95817.22;;;;
2022/07/07 01:36:21;;;;;;;4.2;3.3;;;;;;;16.67;63.82422;95817.22;;;;
2022/07/07 01:37:24;;;;;;;4.2;3.3;;;;;;;16.67;63.82422;95817.22;;;;
2022/07/07 01:38:24;;;;;;;4.2;3.3;;;;;;;16.67;63.82422;95817.22;;;;
2022/07/07 01:39:25;;;;;;;4.2;3.3;;;;;;;16.67;63.82422;95817.22;;;;
2022/07/07 01:40:26;;;;;;;4.2;3.3;;;;;;;16.67;63.82422;95817.22;;;;
2022/07/07 01:41:26;;;;;;;4.2;3.3;;;;;;;16.67;63.82422;95817.22;;;;
2022/07/07 01:42:27;;;;;;;4.2;3.3;;;;;;;16.67;63.82422;95817.22;;;;
2022/07/07 01:43:27;;;;;;;4.2;3.3;;;;;;;16.67;63.82422;95817.22;;;;
2022/07/07 01:44:28;;;;;;;4.25;3.4;;;;;;;16.58;64.07324;95817.17;;;;
2022/07/07 01:45:30;;;;;;;4.25;3.4;;;;;;;16.58;64.07324;95817.17;;;;
2022/07/07 01:46:31;;;;;;;4.25;3.4;;;;;;;16.58;64.07324;95817.17;;;;
2022/07/07 01:47:33;;;;;;;4.25;3.4;;;;;;;16.58;64.07324;95817.17;;;;
2022/07/07 01:48:33;;;;;;;4.25;3.4;;;;;;;16.58;64.07324;95817.17;;;;
2022/07/07 01:49:34;;;;;;;4.25;3.4;;;;;;;16.58;64.07324;95817.17;;;;
2022/07/07 01:50:35;;;;;;;4.25;3.4;;;;;;;16.58;64.07324;95817.17;;;;
2022/07/07 01:51:35;;;;;;;4.25;3.4;;;;;;;16.58;64.07324;95817.17;;;;
2022/07/07 01:52:36;;;;;;;4.25;3.4;;;;;;;16.58;64.07324;95817.17;;;;
2022/07/07 01:53:37;;;;;;;4.25;3.4;;;;;;;16.58;64.07324;95817.17;;;;
2022/07/07 01:54:37;;;;;;;4.25;3.4;;;;;;;16.58;64.07324;95817.17;;;;
2022/07/07 01:55:38;;;;;;;4.45;2.9;;;;;;;16.45;64.13086;95805.52;;;;
2022/07/07 01:56:38;;;;;;;4.45;2.9;;;;;;;16.45;64.13086;95805.52;;;;
2022/07/07 01:57:39;;;;;;;4.45;2.9;;;;;;;16.45;64.13086;95805.52;;;;
2022/07/07 01:58:39;;;;;;;4.45;2.9;;;;;;;16.45;64.13086;95805.52;;;;
2022/07/07 01:59:40;;;;;;;4.45;2.9;;;;;;;16.45;64.13086;95805.52;;;;
2022/07/07 02:00:40;;;;;;;4.45;2.9;;;;;;;16.45;64.13086;95805.52;;;;
2022/07/07 02:01:41;;;;;;;4.45;2.9;;;;;;;16.45;64.13086;95805.52;;;;
2022/07/07 02:02:41;;;;;;;4.45;2.9;;;;;;;16.45;64.13086;95805.52;;;;
2022/07/07 02:03:42;;;;;;;4.45;2.9;;;;;;;16.45;64.13086;95805.52;;;;
2022/07/07 02:04:42;;;;;;;4.45;2.9;;;;;;;16.45;64.13086;95805.52;;;;
2022/07/07 02:05:43;;;;;;;4.1;3.25;;;;;;;16.18;64.34277;95806.13;;;;
2022/07/07 02:06:43;;;;;;;4.1;3.25;;;;;;;16.18;64.34277;95806.13;;;;
2022/07/07 02:07:45;;;;;;;4.1;3.25;;;;;;;16.18;64.34277;95806.13;;;;
2022/07/07 02:08:45;;;;;;;4.1;3.25;;;;;;;16.18;64.34277;95806.13;;;;
2022/07/07 02:09:46;;;;;;;4.1;3.25;;;;;;;16.18;64.34277;95806.13;;;;
2022/07/07 02:11:18;;;;;;;4.1;3.25;;;;;;;16.18;64.34277;95806.13;;;;
2022/07/07 02:12:19;;;;;;;4.1;3.25;;;;;;;16.18;64.34277;95806.13;;;;
2022/07/07 02:13:19;;;;;;;4.1;3.25;;;;;;;16.18;64.34277;95806.13;;;;
2022/07/07 02:14:20;;;;;;;4.1;3.25;;;;;;;16.18;64.34277;95806.13;;;;
2022/07/07 02:15:20;;;;;;;4.1;3.25;;;;;;;16.18;64.34277;95806.13;;;;
2022/07/07 02:16:21;;;;;;;4.25;3.3;;;;;;;16;64.6123;95806.28;;;;
2022/07/07 02:17:23;;;;;;;4.25;3.3;;;;;;;16;64.6123;95806.28;;;;
2022/07/07 02:18:24;;;;;;;4.25;3.3;;;;;;;16;64.6123;95806.28;;;;
2022/07/07 02:19:25;;;;;;;4.25;3.3;;;;;;;16;64.6123;95806.28;;;;
2022/07/07 02:20:26;;;;;;;4.25;3.3;;;;;;;16;64.6123;95806.28;;;;
2022/07/07 02:21:26;;;;;;;4.25;3.3;;;;;;;16;64.6123;95806.28;;;;
2022/07/07 02:22:27;;;;;;;4.25;3.3;;;;;;;16;64.6123;95806.28;;;;
2022/07/07 02:23:28;;;;;;;4.25;3.3;;;;;;;16;64.6123;95806.28;;;;
2022/07/07 02:24:29;;;;;;;4.25;3.3;;;;;;;16;64.6123;95806.28;;;;
2022/07/07 02:25:29;;;;;;;4.25;3.3;;;;;;;16;64.6123;95806.28;;;;
2022/07/07 02:26:31;;;;;;;4.25;3.3;;;;;;;16;64.6123;95806.28;;;;
2022/07/07 02:27:31;;;;;;;3.85;3.45;;;;;;;15.88;64.72656;95809.35;;;;
2022/07/07 02:28:32;;;;;;;3.85;3.45;;;;;;;15.88;64.72656;95809.35;;;;
2022/07/07 02:29:33;;;;;;;3.85;3.45;;;;;;;15.88;64.72656;95809.35;;;;
2022/07/07 02:30:34;;;;;;;3.85;3.45;;;;;;;15.88;64.72656;95809.35;;;;
2022/07/07 02:31:34;;;;;;;3.85;3.45;;;;;;;15.88;64.72656;95809.35;;;;
2022/07/07 02:32:35;;;;;;;3.85;3.45;;;;;;;15.88;64.72656;95809.35;;;;
2022/07/07 02:33:35;;;;;;;3.85;3.45;;;;;;;15.88;64.72656;95809.35;;;;
2022/07/07 02:34:36;;;;;;;3.85;3.45;;;;;;;15.88;64.72656;95809.35;;;;
2022/07/07 02:35:37;;;;;;;3.85;3.45;;;;;;;15.88;64.72656;95809.35;;;;
2022/07/07 02:36:37;;;;;;;3.85;3.45;;;;;;;15.88;64.72656;95809.35;;;;
2022/07/07 02:37:38;;;;;;;4.349999;3.45;;;;;;;15.75;64.93652;95804.35;;;;
2022/07/07 02:38:38;;;;;;;4.349999;3.45;;;;;;;15.75;64.93652;95804.35;;;;
2022/07/07 02:39:39;;;;;;;4.349999;3.45;;;;;;;15.75;64.93652;95804.35;;;;
2022/07/07 02:40:40;;;;;;;4.349999;3.45;;;;;;;15.75;64.93652;95804.35;;;;
2022/07/07 02:41:41;;;;;;;4.349999;3.45;;;;;;;15.75;64.93652;95804.35;;;;
2022/07/07 02:42:42;;;;;;;4.349999;3.45;;;;;;;15.75;64.93652;95804.35;;;;
2022/07/07 02:43:42;;;;;;;4.349999;3.45;;;;;;;15.75;64.93652;95804.35;;;;
2022/07/07 02:44:43;;;;;;;4.349999;3.45;;;;;;;15.75;64.93652;95804.35;;;;
2022/07/07 02:45:43;;;;;;;4.349999;3.45;;;;;;;15.75;64.93652;95804.35;;;;
2022/07/07 02:46:46;;;;;;;4.349999;3.45;;;;;;;15.75;64.93652;95804.35;;;;
2022/07/07 02:47:46;;;;;;;4.349999;3.45;;;;;;;15.75;64.93652;95804.35;;;;
2022/07/07 02:48:47;;;;;;;5.400001;3.45;;;;;;;15.8;65.08594;95802.21;;;;
2022/07/07 02:49:47;;;;;;;5.400001;3.45;;;;;;;15.8;65.08594;95802.21;;;;
2022/07/07 02:50:47;;;;;;;5.400001;3.45;;;;;;;15.8;65.08594;95802.21;;;;
2022/07/07 02:51:49;;;;;;;5.400001;3.45;;;;;;;15.8;65.08594;95802.21;;;;
2022/07/07 02:52:49;;;;;;;5.400001;3.45;;;;;;;15.8;65.08594;95802.21;;;;
2022/07/07 02:53:50;;;;;;;5.400001;3.45;;;;;;;15.8;65.08594;95802.21;;;;
2022/07/07 02:54:50;;;;;;;5.400001;3.45;;;;;;;15.8;65.08594;95802.21;;;;
2022/07/07 02:55:51;;;;;;;5.400001;3.45;;;;;;;15.8;65.08594;95802.21;;;;
2022/07/07 02:56:51;;;;;;;5.400001;3.45;;;;;;;15.8;65.08594;95802.21;;;;
2022/07/07 02:57:52;;;;;;;5.400001;3.45;;;;;;;15.8;65.08594;95802.21;;;;
2022/07/07 02:58:52;;;;;;;5.400001;3.45;;;;;;;15.8;65.08594;95802.21;;;;
2022/07/07 02:59:53;;;;;;;6.1;3.45;;;;;;;15.74;65.04492;95795.53;;;;
2022/07/07 03:00:54;;;;;;;6.1;3.45;;;;;;;15.74;65.04492;95795.53;;;;
2022/07/07 03:01:55;;;;;;;6.1;3.45;;;;;;;15.74;65.04492;95795.53;;;;
2022/07/07 03:02:55;;;;;;;6.1;3.45;;;;;;;15.74;65.04492;95795.53;;;;
2022/07/07 03:03:56;;;;;;;6.1;3.45;;;;;;;15.74;65.04492;95795.53;;;;
2022/07/07 03:04:56;;;;;;;6.1;3.45;;;;;;;15.74;65.04492;95795.53;;;;
2022/07/07 03:05:57;;;;;;;6.1;3.45;;;;;;;15.74;65.04492;95795.53;;;;
2022/07/07 03:06:57;;;;;;;6.1;3.45;;;;;;;15.74;65.04492;95795.53;;;;
2022/07/07 03:07:58;;;;;;;6.1;3.45;;;;;;;15.74;65.04492;95795.53;;;;
2022/07/07 03:08:59;;;;;;;6.1;3.45;;;;;;;15.74;65.04492;95795.53;;;;
2022/07/07 03:09:59;;;;;;;5.35;3.6;;;;;;;15.72;65.06348;95798.02;;;;
2022/07/07 03:11:00;;;;;;;5.35;3.6;;;;;;;15.72;65.06348;95798.02;;;;
2022/07/07 03:12:00;;;;;;;5.35;3.6;;;;;;;15.72;65.06348;95798.02;;;;
2022/07/07 03:13:01;;;;;;;5.35;3.6;;;;;;;15.72;65.06348;95798.02;;;;
2022/07/07 03:14:01;;;;;;;5.35;3.6;;;;;;;15.72;65.06348;95798.02;;;;
2022/07/07 03:15:02;;;;;;;5.35;3.6;;;;;;;15.72;65.06348;95798.02;;;;
2022/07/07 03:16:02;;;;;;;5.35;3.6;;;;;;;15.72;65.06348;95798.02;;;;
2022/07/07 03:17:04;;;;;;;5.35;3.6;;;;;;;15.72;65.06348;95798.02;;;;
2022/07/07 03:18:04;;;;;;;5.35;3.6;;;;;;;15.72;65.06348;95798.02;;;;
2022/07/07 03:19:05;;;;;;;5.35;3.6;;;;;;;15.72;65.06348;95798.02;;;;
2022/07/07 03:20:05;;;;;;;5.35;3.6;;;;;;;15.72;65.06348;95798.02;;;;
2022/07/07 03:21:07;;;;;;;4.2;3.25;;;;;;;15.72;65.09668;95790.01;;;;
2022/07/07 03:22:07;;;;;;;4.2;3.25;;;;;;;15.72;65.09668;95790.01;;;;
2022/07/07 03:23:08;;;;;;;4.2;3.25;;;;;;;15.72;65.09668;95790.01;;;;
2022/07/07 03:24:08;;;;;;;4.2;3.25;;;;;;;15.72;65.09668;95790.01;;;;
2022/07/07 03:25:09;;;;;;;4.2;3.25;;;;;;;15.72;65.09668;95790.01;;;;
2022/07/07 03:26:11;;;;;;;4.2;3.25;;;;;;;15.72;65.09668;95790.01;;;;
2022/07/07 03:27:11;;;;;;;4.2;3.25;;;;;;;15.72;65.09668;95790.01;;;;
2022/07/07 03:28:12;;;;;;;4.2;3.25;;;;;;;15.72;65.09668;95790.01;;;;
2022/07/07 03:29:12;;;;;;;4.2;3.25;;;;;;;15.72;65.09668;95790.01;;;;
2022/07/07 03:30:13;;;;;;;4.2;3.25;;;;;;;15.72;65.09668;95790.01;;;;
2022/07/07 03:31:14;;;;;;;3.85;3.4;;;;;;;15.8;65.16211;95778.63;;;;
2022/07/07 03:32:14;;;;;;;3.85;3.4;;;;;;;15.8;65.16211;95778.63;;;;
2022/07/07 03:33:15;;;;;;;3.85;3.4;;;;;;;15.8;65.16211;95778.63;;;;
2022/07/07 03:34:15;;;;;;;3.85;3.4;;;;;;;15.8;65.16211;95778.63;;;;
2022/07/07 03:35:16;;;;;;;3.85;3.4;;;;;;;15.8;65.16211;95778.63;;;;
2022/07/07 03:36:17;;;;;;;3.85;3.4;;;;;;;15.8;65.16211;95778.63;;;;
2022/07/07 03:37:17;;;;;;;3.85;3.4;;;;;;;15.8;65.16211;95778.63;;;;
2022/07/07 03:38:18;;;;;;;3.85;3.4;;;;;;;15.8;65.16211;95778.63;;;;
2022/07/07 03:39:18;;;;;;;3.85;3.4;;;;;;;15.8;65.16211;95778.63;;;;
2022/07/07 03:40:19;;;;;;;3.85;3.4;;;;;;;15.8;65.16211;95778.63;;;;
2022/07/07 03:41:19;;;;;;;3.85;3.4;;;;;;;15.8;65.16211;95778.63;;;;
2022/07/07 03:42:20;;;;;;;3.9;3.5;;;;;;;15.73;65.21777;95774.33;;;;
2022/07/07 03:43:20;;;;;;;3.9;3.5;;;;;;;15.73;65.21777;95774.33;;;;
2022/07/07 03:44:21;;;;;;;3.9;3.5;;;;;;;15.73;65.21777;95774.33;;;;
2022/07/07 03:45:21;;;;;;;3.9;3.5;;;;;;;15.73;65.21777;95774.33;;;;
2022/07/07 03:46:22;;;;;;;3.9;3.5;;;;;;;15.73;65.21777;95774.33;;;;
2022/07/07 03:47:22;;;;;;;3.9;3.5;;;;;;;15.73;65.21777;95774.33;;;;
2022/07/07 03:48:23;;;;;;;3.9;3.5;;;;;;;15.73;65.21777;95774.33;;;;
2022/07/07 03:49:23;;;;;;;3.9;3.5;;;;;;;15.73;65.21777;95774.33;;;;
2022/07/07 03:50:24;;;;;;;3.9;3.5;;;;;;;15.73;65.21777;95774.33;;;;
2022/07/07 03:51:24;;;;;;;3.9;3.5;;;;;;;15.73;65.21777;95774.33;;;;
2022/07/07 03:52:25;;;;;;;4;3.6;;;;;;;15.73;65.27148;95769.1;;;;
2022/07/07 03:53:25;;;;;;;4;3.6;;;;;;;15.73;65.27148;95769.1;;;;
2022/07/07 03:54:26;;;;;;;4;3.6;;;;;;;15.73;65.27148;95769.1;;;;
2022/07/07 03:55:27;;;;;;;4;3.6;;;;;;;15.73;65.27148;95769.1;;;;
2022/07/07 03:56:28;;;;;;;4;3.6;;;;;;;15.73;65.27148;95769.1;;;;
2022/07/07 03:57:28;;;;;;;4;3.6;;;;;;;15.73;65.27148;95769.1;;;;
2022/07/07 03:58:29;;;;;;;4;3.6;;;;;;;15.73;65.27148;95769.1;;;;
2022/07/07 03:59:29;;;;;;;4;3.6;;;;;;;15.73;65.27148;95769.1;;;;
2022/07/07 04:00:30;;;;;;;4;3.6;;;;;;;15.73;65.27148;95769.1;;;;
2022/07/07 04:01:30;;;;;;;4;3.6;;;;;;;15.73;65.27148;95769.1;;;;
2022/07/07 04:02:31;;;;;;;4;3.6;;;;;;;15.73;65.27148;95769.1;;;;
2022/07/07 04:03:31;;;;;;;4.35;3.45;;;;;;;15.66;65.44727;95772.8;;;;
2022/07/07 04:04:32;;;;;;;4.35;3.45;;;;;;;15.66;65.44727;95772.8;;;;
2022/07/07 04:05:33;;;;;;;4.35;3.45;;;;;;;15.66;65.44727;95772.8;;;;
2022/07/07 04:06:33;;;;;;;4.35;3.45;;;;;;;15.66;65.44727;95772.8;;;;
2022/07/07 04:07:34;;;;;;;4.35;3.45;;;;;;;15.66;65.44727;95772.8;;;;
2022/07/07 04:08:34;;;;;;;4.35;3.45;;;;;;;15.66;65.44727;95772.8;;;;
2022/07/07 04:09:35;;;;;;;4.35;3.45;;;;;;;15.66;65.44727;95772.8;;;;
2022/07/07 04:10:35;;;;;;;4.35;3.45;;;;;;;15.66;65.44727;95772.8;;;;
2022/07/07 04:11:36;;;;;;;4.35;3.45;;;;;;;15.66;65.44727;95772.8;;;;
2022/07/07 04:12:36;;;;;;;4.35;3.45;;;;;;;15.66;65.44727;95772.8;;;;
2022/07/07 04:13:37;;;;;;;4.35;3.45;;;;;;;15.66;65.44727;95772.8;;;;
2022/07/07 04:14:37;;;;;;;4.199999;3.75;;;;;;;15.71;65.61719;95776.92;;;;
2022/07/07 04:15:38;;;;;;;4.199999;3.75;;;;;;;15.71;65.61719;95776.92;;;;
2022/07/07 04:16:38;;;;;;;4.199999;3.75;;;;;;;15.71;65.61719;95776.92;;;;
2022/07/07 04:17:39;;;;;;;4.199999;3.75;;;;;;;15.71;65.61719;95776.92;;;;
2022/07/07 04:18:39;;;;;;;4.199999;3.75;;;;;;;15.71;65.61719;95776.92;;;;
2022/07/07 04:19:40;;;;;;;4.199999;3.75;;;;;;;15.71;65.61719;95776.92;;;;
2022/07/07 04:20:40;;;;;;;4.199999;3.75;;;;;;;15.71;65.61719;95776.92;;;;
2022/07/07 04:21:41;;;;;;;4.199999;3.75;;;;;;;15.71;65.61719;95776.92;;;;
2022/07/07 04:22:41;;;;;;;4.199999;3.75;;;;;;;15.71;65.61719;95776.92;;;;
2022/07/07 04:23:42;;;;;;;4.199999;3.75;;;;;;;15.71;65.61719;95776.92;;;;
2022/07/07 04:24:43;;;;;;;3.85;3.45;;;;;;;15.76;65.74512;95780.63;;;;
2022/07/07 04:25:44;;;;;;;3.85;3.45;;;;;;;15.76;65.74512;95780.63;;;;
2022/07/07 04:26:44;;;;;;;3.85;3.45;;;;;;;15.76;65.74512;95780.63;;;;
2022/07/07 04:27:45;;;;;;;3.85;3.45;;;;;;;15.76;65.74512;95780.63;;;;
2022/07/07 04:28:45;;;;;;;3.85;3.45;;;;;;;15.76;65.74512;95780.63;;;;
2022/07/07 04:29:46;;;;;;;3.85;3.45;;;;;;;15.76;65.74512;95780.63;;;;
2022/07/07 04:30:46;;;;;;;3.85;3.45;;;;;;;15.76;65.74512;95780.63;;;;
2022/07/07 04:31:47;;;;;;;3.85;3.45;;;;;;;15.76;65.74512;95780.63;;;;
2022/07/07 04:32:47;;;;;;;3.85;3.45;;;;;;;15.76;65.74512;95780.63;;;;
2022/07/07 04:33:48;;;;;;;3.85;3.45;;;;;;;15.76;65.74512;95780.63;;;;
2022/07/07 04:34:48;;;;;;;3.85;3.45;;;;;;;15.76;65.74512;95780.63;;;;
2022/07/07 04:35:49;;;;;;;4.1;3.7;;;;;;;15.88;65.7207;95782.69;;;;
2022/07/07 04:36:49;;;;;;;4.1;3.7;;;;;;;15.88;65.7207;95782.69;;;;
2022/07/07 04:37:50;;;;;;;4.1;3.7;;;;;;;15.88;65.7207;95782.69;;;;
2022/07/07 04:38:51;;;;;;;4.1;3.7;;;;;;;15.88;65.7207;95782.69;;;;
2022/07/07 04:39:51;;;;;;;4.1;3.7;;;;;;;15.88;65.7207;95782.69;;;;
2022/07/07 04:40:52;;;;;;;4.1;3.7;;;;;;;15.88;65.7207;95782.69;;;;
2022/07/07 04:41:53;;;;;;;4.1;3.7;;;;;;;15.88;65.7207;95782.69;;;;
2022/07/07 04:42:53;;;;;;;4.1;3.7;;;;;;;15.88;65.7207;95782.69;;;;
2022/07/07 04:43:54;;;;;;;4.1;3.7;;;;;;;15.88;65.7207;95782.69;;;;
2022/07/07 04:44:54;;;;;;;4.1;3.7;;;;;;;15.88;65.7207;95782.69;;;;
2022/07/07 04:45:55;;;;;;;5.2;3.8;;;;;;;16;65.72754;95771.06;;;;
2022/07/07 04:46:55;;;;;;;5.2;3.8;;;;;;;16;65.72754;95771.06;;;;
2022/07/07 04:47:56;;;;;;;5.2;3.8;;;;;;;16;65.72754;95771.06;;;;
2022/07/07 04:48:56;;;;;;;5.2;3.8;;;;;;;16;65.72754;95771.06;;;;
2022/07/07 04:49:57;;;;;;;5.2;3.8;;;;;;;16;65.72754;95771.06;;;;
2022/07/07 04:50:57;;;;;;;5.2;3.8;;;;;;;16;65.72754;95771.06;;;;
2022/07/07 04:51:58;;;;;;;5.2;3.8;;;;;;;16;65.72754;95771.06;;;;
2022/07/07 04:52:58;;;;;;;5.2;3.8;;;;;;;16;65.72754;95771.06;;;;
2022/07/07 04:53:59;;;;;;;5.2;3.8;;;;;;;16;65.72754;95771.06;;;;
2022/07/07 04:54:59;;;;;;;5.2;3.8;;;;;;;16;65.72754;95771.06;;;;
2022/07/07 04:56:00;;;;;;;5.2;3.8;;;;;;;16;65.72754;95771.06;;;;
2022/07/07 04:57:00;;;;;;;4.4;3.6;;;;;;;16.25;65.85254;95762.29;;;;
2022/07/07 04:58:01;;;;;;;4.4;3.6;;;;;;;16.25;65.85254;95762.29;;;;
2022/07/07 04:59:01;;;;;;;4.4;3.6;;;;;;;16.25;65.85254;95762.29;;;;
2022/07/07 05:00:02;;;;;;;4.4;3.6;;;;;;;16.25;65.85254;95762.29;;;;
2022/07/07 05:01:03;;;;;;;4.4;3.6;;;;;;;16.25;65.85254;95762.29;;;;
2022/07/07 05:02:04;;;;;;;4.4;3.6;;;;;;;16.25;65.85254;95762.29;;;;
2022/07/07 05:03:05;;;;;;;4.4;3.6;;;;;;;16.25;65.85254;95762.29;;;;
2022/07/07 05:04:05;;;;;;;4.4;3.6;;;;;;;16.25;65.85254;95762.29;;;;
2022/07/07 05:05:06;;;;;;;4.4;3.6;;;;;;;16.25;65.85254;95762.29;;;;
2022/07/07 05:06:07;;;;;;;4.4;3.6;;;;;;;16.25;65.85254;95762.29;;;;
2022/07/07 05:07:07;;;;;;;4.95;3.8;;;;;;;16.5;65.64844;95764.15;;;;
2022/07/07 05:08:08;;;;;;;4.95;3.8;;;;;;;16.5;65.64844;95764.15;;;;
2022/07/07 05:09:09;;;;;;;4.95;3.8;;;;;;;16.5;65.64844;95764.15;;;;
2022/07/07 05:10:10;;;;;;;4.95;3.8;;;;;;;16.5;65.64844;95764.15;;;;
2022/07/07 05:11:11;;;;;;;4.95;3.8;;;;;;;16.5;65.64844;95764.15;;;;
2022/07/07 05:12:11;;;;;;;4.95;3.8;;;;;;;16.5;65.64844;95764.15;;;;
2022/07/07 05:13:12;;;;;;;4.95;3.8;;;;;;;16.5;65.64844;95764.15;;;;
2022/07/07 05:14:12;;;;;;;4.95;3.8;;;;;;;16.5;65.64844;95764.15;;;;
2022/07/07 05:15:13;;;;;;;4.95;3.8;;;;;;;16.5;65.64844;95764.15;;;;
2022/07/07 05:16:13;;;;;;;4.95;3.8;;;;;;;16.5;65.64844;95764.15;;;;
2022/07/07 05:17:14;;;;;;;4.95;3.8;;;;;;;16.5;65.64844;95764.15;;;;
2022/07/07 05:18:15;;;;;;;5.25;3.2;;;;;;;16.87;65.44922;95767.81;;;;
2022/07/07 05:19:16;;;;;;;5.25;3.2;;;;;;;16.87;65.44922;95767.81;;;;
2022/07/07 05:20:16;;;;;;;5.25;3.2;;;;;;;16.87;65.44922;95767.81;;;;
2022/07/07 05:21:17;;;;;;;5.25;3.2;;;;;;;16.87;65.44922;95767.81;;;;
2022/07/07 05:22:17;;;;;;;5.25;3.2;;;;;;;16.87;65.44922;95767.81;;;;
2022/07/07 05:23:18;;;;;;;5.25;3.2;;;;;;;16.87;65.44922;95767.81;;;;
2022/07/07 05:24:18;;;;;;;5.25;3.2;;;;;;;16.87;65.44922;95767.81;;;;
2022/07/07 05:25:19;;;;;;;5.25;3.2;;;;;;;16.87;65.44922;95767.81;;;;
2022/07/07 05:26:19;;;;;;;5.25;3.2;;;;;;;16.87;65.44922;95767.81;;;;
2022/07/07 05:27:20;;;;;;;5.25;3.2;;;;;;;16.87;65.44922;95767.81;;;;
2022/07/07 05:28:20;;;;;;;5.25;3.2;;;;;;;16.87;65.44922;95767.81;;;;
2022/07/07 05:29:21;;;;;;;3.2;3;;;;;;;17.15;65.03418;95782.36;;;;
2022/07/07 05:30:21;;;;;;;3.2;3;;;;;;;17.15;65.03418;95782.36;;;;
2022/07/07 05:31:22;;;;;;;3.2;3;;;;;;;17.15;65.03418;95782.36;;;;
2022/07/07 05:32:23;;;;;;;3.2;3;;;;;;;17.15;65.03418;95782.36;;;;
2022/07/07 05:33:23;;;;;;;3.2;3;;;;;;;17.15;65.03418;95782.36;;;;
2022/07/07 05:34:23;;;;;;;3.2;3;;;;;;;17.15;65.03418;95782.36;;;;
2022/07/07 05:35:24;;;;;;;3.2;3;;;;;;;17.15;65.03418;95782.36;;;;
2022/07/07 05:36:24;;;;;;;3.2;3;;;;;;;17.15;65.03418;95782.36;;;;
2022/07/07 05:37:25;;;;;;;3.2;3;;;;;;;17.15;65.03418;95782.36;;;;
2022/07/07 05:38:25;;;;;;;3.2;3;;;;;;;17.15;65.03418;95782.36;;;;
2022/07/07 05:39:28;;;;;;;5.2;3.35;;;;;;;17.43;64.99707;95782.84;;;;
2022/07/07 05:40:28;;;;;;;5.2;3.35;;;;;;;17.43;64.99707;95782.84;;;;
2022/07/07 05:41:29;;;;;;;5.2;3.35;;;;;;;17.43;64.99707;95782.84;;;;
2022/07/07 05:42:30;;;;;;;5.2;3.35;;;;;;;17.43;64.99707;95782.84;;;;
2022/07/07 05:43:30;;;;;;;5.2;3.35;;;;;;;17.43;64.99707;95782.84;;;;
2022/07/07 05:44:31;;;;;;;5.2;3.35;;;;;;;17.43;64.99707;95782.84;;;;
2022/07/07 05:45:32;;;;;;;5.2;3.35;;;;;;;17.43;64.99707;95782.84;;;;
2022/07/07 05:46:32;;;;;;;5.2;3.35;;;;;;;17.43;64.99707;95782.84;;;;
2022/07/07 05:47:33;;;;;;;5.2;3.35;;;;;;;17.43;64.99707;95782.84;;;;
2022/07/07 05:48:34;;;;;;;5.2;3.35;;;;;;;17.43;64.99707;95782.84;;;;
2022/07/07 05:49:34;;;;;;;5.2;3.35;;;;;;;17.43;64.99707;95782.84;;;;